Tibagi, Brazil
Current Conditions -  °F | °C
As of 9:00 AM on Sunday 23 Nov 2014 (Local Time) from SBLO Reporting Station
Light Fog Light Fog  
Wind Chill: 70°   Ceiling: 700
Heat Index: 70°   Visibility: 3mi
Dew Point: 70°   Wind: 2mph
Humidity: 100%   Direction: 200°SSW
Pressure: NA   Gusts: NA
Location:  24.51°S, 50.41°W
Report Text: SBLO 231100Z 20002KT 5000 2000SE BCFG BR FEW003 BKN007 21/21 Q1015
Loading
Personal Weather Stations






























Interactive Weather Map New forecast layout! Learn more

10-Day Weather Forecast

Advertisements
Track Severe Weather on mobile